sensor_id;sensor_type;location;lat;lon;timestamp;P1;durP1;ratioP1;P2;durP2;ratioP2
75413;SDS011;64758;52.122;5.404;2023-06-14T00:00:02;5.87;;;2.30;;
75413;SDS011;64758;52.122;5.404;2023-06-14T00:02:30;8.45;;;2.10;;
75413;SDS011;64758;52.122;5.404;2023-06-14T00:04:57;5.05;;;2.28;;
75413;SDS011;64758;52.122;5.404;2023-06-14T00:07:35;6.15;;;2.53;;
75413;SDS011;64758;52.122;5.404;2023-06-14T00:10:09;5.70;;;1.83;;
75413;SDS011;64758;52.122;5.404;2023-06-14T00:12:37;3.80;;;1.90;;
75413;SDS011;64758;52.122;5.404;2023-06-14T00:15:05;2.85;;;1.77;;
75413;SDS011;64758;52.122;5.404;2023-06-14T00:17:32;4.45;;;2.20;;
75413;SDS011;64758;52.122;5.404;2023-06-14T00:20:00;4.25;;;1.85;;
75413;SDS011;64758;52.122;5.404;2023-06-14T00:22:29;4.97;;;2.28;;
75413;SDS011;64758;52.122;5.404;2023-06-14T00:24:57;9.73;;;1.77;;
75413;SDS011;64758;52.122;5.404;2023-06-14T00:27:23;4.97;;;1.80;;
75413;SDS011;64758;52.122;5.404;2023-06-14T00:29:51;6.45;;;1.75;;
75413;SDS011;64758;52.122;5.404;2023-06-14T00:32:18;3.08;;;2.08;;
75413;SDS011;64758;52.122;5.404;2023-06-14T00:34:45;4.07;;;2.17;;
75413;SDS011;64758;52.122;5.404;2023-06-14T00:37:11;5.30;;;1.73;;
75413;SDS011;64758;52.122;5.404;2023-06-14T00:39:38;5.75;;;1.88;;
75413;SDS011;64758;52.122;5.404;2023-06-14T00:42:04;3.42;;;2.03;;
75413;SDS011;64758;52.122;5.404;2023-06-14T00:44:32;3.17;;;1.55;;
75413;SDS011;64758;52.122;5.404;2023-06-14T00:46:58;3.95;;;1.88;;
75413;SDS011;64758;52.122;5.404;2023-06-14T00:49:25;4.83;;;1.87;;
75413;SDS011;64758;52.122;5.404;2023-06-14T00:51:52;5.57;;;2.08;;
75413;SDS011;64758;52.122;5.404;2023-06-14T00:54:18;4.70;;;1.85;;
75413;SDS011;64758;52.122;5.404;2023-06-14T00:56:45;4.95;;;1.92;;
75413;SDS011;64758;52.122;5.404;2023-06-14T00:59:11;5.50;;;2.47;;
75413;SDS011;64758;52.122;5.404;2023-06-14T01:01:38;3.60;;;1.73;;
75413;SDS011;64758;52.122;5.404;2023-06-14T01:04:06;2.63;;;2.13;;
75413;SDS011;64758;52.122;5.404;2023-06-14T01:06:49;2.55;;;1.55;;
75413;SDS011;64758;52.122;5.404;2023-06-14T01:12:22;7.03;;;2.08;;
75413;SDS011;64758;52.122;5.404;2023-06-14T01:14:55;8.83;;;1.73;;
75413;SDS011;64758;52.122;5.404;2023-06-14T01:17:23;3.20;;;1.55;;
75413;SDS011;64758;52.122;5.404;2023-06-14T01:19:53;3.45;;;2.08;;
75413;SDS011;64758;52.122;5.404;2023-06-14T01:22:25;2.95;;;1.48;;
75413;SDS011;64758;52.122;5.404;2023-06-14T01:24:53;5.03;;;1.95;;
75413;SDS011;64758;52.122;5.404;2023-06-14T01:27:22;3.30;;;1.77;;
75413;SDS011;64758;52.122;5.404;2023-06-14T01:29:55;3.95;;;1.60;;
75413;SDS011;64758;52.122;5.404;2023-06-14T01:32:26;6.63;;;2.03;;
75413;SDS011;64758;52.122;5.404;2023-06-14T01:34:54;5.03;;;1.67;;
75413;SDS011;64758;52.122;5.404;2023-06-14T01:37:21;5.57;;;2.08;;
75413;SDS011;64758;52.122;5.404;2023-06-14T01:39:48;4.10;;;1.57;;
75413;SDS011;64758;52.122;5.404;2023-06-14T01:42:16;3.28;;;1.70;;
75413;SDS011;64758;52.122;5.404;2023-06-14T01:44:44;4.20;;;1.58;;
75413;SDS011;64758;52.122;5.404;2023-06-14T01:47:12;5.32;;;1.73;;
75413;SDS011;64758;52.122;5.404;2023-06-14T01:49:38;4.78;;;2.20;;
75413;SDS011;64758;52.122;5.404;2023-06-14T01:52:06;5.00;;;2.33;;
75413;SDS011;64758;52.122;5.404;2023-06-14T01:54:36;4.85;;;1.77;;
75413;SDS011;64758;52.122;5.404;2023-06-14T01:57:08;8.70;;;1.92;;
75413;SDS011;64758;52.122;5.404;2023-06-14T01:59:35;4.53;;;1.70;;
75413;SDS011;64758;52.122;5.404;2023-06-14T02:02:02;4.40;;;1.67;;
75413;SDS011;64758;52.122;5.404;2023-06-14T02:04:29;2.30;;;1.77;;
75413;SDS011;64758;52.122;5.404;2023-06-14T02:06:56;3.55;;;2.05;;
75413;SDS011;64758;52.122;5.404;2023-06-14T02:09:22;4.32;;;1.90;;
75413;SDS011;64758;52.122;5.404;2023-06-14T02:11:49;5.30;;;2.40;;
75413;SDS011;64758;52.122;5.404;2023-06-14T02:14:16;7.20;;;2.10;;
75413;SDS011;64758;52.122;5.404;2023-06-14T02:16:43;5.97;;;1.77;;
75413;SDS011;64758;52.122;5.404;2023-06-14T02:19:16;3.58;;;2.17;;
75413;SDS011;64758;52.122;5.404;2023-06-14T02:21:43;5.35;;;1.88;;
75413;SDS011;64758;52.122;5.404;2023-06-14T02:24:09;4.40;;;1.92;;
75413;SDS011;64758;52.122;5.404;2023-06-14T02:26:37;4.10;;;1.70;;
75413;SDS011;64758;52.122;5.404;2023-06-14T02:29:04;3.03;;;1.93;;
75413;SDS011;64758;52.122;5.404;2023-06-14T02:31:32;3.13;;;1.70;;
75413;SDS011;64758;52.122;5.404;2023-06-14T02:33:59;4.00;;;1.90;;
75413;SDS011;64758;52.122;5.404;2023-06-14T02:36:25;4.07;;;1.80;;
75413;SDS011;64758;52.122;5.404;2023-06-14T02:38:52;4.57;;;1.75;;
75413;SDS011;64758;52.122;5.404;2023-06-14T02:41:20;5.37;;;1.53;;
75413;SDS011;64758;52.122;5.404;2023-06-14T02:43:46;3.65;;;1.98;;
75413;SDS011;64758;52.122;5.404;2023-06-14T02:46:13;7.03;;;1.90;;
75413;SDS011;64758;52.122;5.404;2023-06-14T02:48:39;3.15;;;2.05;;
75413;SDS011;64758;52.122;5.404;2023-06-14T02:51:06;6.30;;;2.00;;
75413;SDS011;64758;52.122;5.404;2023-06-14T02:53:35;4.67;;;1.83;;
75413;SDS011;64758;52.122;5.404;2023-06-14T02:56:02;6.13;;;2.03;;
75413;SDS011;64758;52.122;5.404;2023-06-14T02:58:30;3.47;;;2.08;;
75413;SDS011;64758;52.122;5.404;2023-06-14T03:00:57;3.83;;;1.73;;
75413;SDS011;64758;52.122;5.404;2023-06-14T03:03:23;4.80;;;2.00;;
75413;SDS011;64758;52.122;5.404;2023-06-14T03:05:51;4.90;;;2.10;;
75413;SDS011;64758;52.122;5.404;2023-06-14T03:08:18;4.65;;;1.85;;
75413;SDS011;64758;52.122;5.404;2023-06-14T03:10:46;3.80;;;2.00;;
75413;SDS011;64758;52.122;5.404;2023-06-14T03:13:13;3.80;;;1.67;;
75413;SDS011;64758;52.122;5.404;2023-06-14T03:15:42;5.88;;;2.00;;
75413;SDS011;64758;52.122;5.404;2023-06-14T03:18:09;9.27;;;2.00;;
75413;SDS011;64758;52.122;5.404;2023-06-14T03:20:36;3.85;;;1.73;;
75413;SDS011;64758;52.122;5.404;2023-06-14T03:23:03;4.13;;;1.92;;
75413;SDS011;64758;52.122;5.404;2023-06-14T03:25:31;2.67;;;1.55;;
75413;SDS011;64758;52.122;5.404;2023-06-14T03:27:59;4.35;;;1.88;;
75413;SDS011;64758;52.122;5.404;2023-06-14T03:30:25;5.67;;;1.83;;
75413;SDS011;64758;52.122;5.404;2023-06-14T03:32:52;4.13;;;1.75;;
75413;SDS011;64758;52.122;5.404;2023-06-14T03:35:19;5.03;;;2.30;;
75413;SDS011;64758;52.122;5.404;2023-06-14T03:37:46;2.53;;;1.60;;
75413;SDS011;64758;52.122;5.404;2023-06-14T03:40:14;5.47;;;1.90;;
75413;SDS011;64758;52.122;5.404;2023-06-14T03:42:42;3.40;;;2.00;;
75413;SDS011;64758;52.122;5.404;2023-06-14T03:45:09;7.03;;;1.98;;
75413;SDS011;64758;52.122;5.404;2023-06-14T03:47:36;4.18;;;2.10;;
75413;SDS011;64758;52.122;5.404;2023-06-14T03:50:03;4.10;;;1.90;;
75413;SDS011;64758;52.122;5.404;2023-06-14T03:52:30;6.18;;;2.28;;
75413;SDS011;64758;52.122;5.404;2023-06-14T03:54:57;4.73;;;1.57;;
75413;SDS011;64758;52.122;5.404;2023-06-14T03:57:29;5.95;;;2.20;;
75413;SDS011;64758;52.122;5.404;2023-06-14T03:59:56;2.58;;;1.73;;
75413;SDS011;64758;52.122;5.404;2023-06-14T04:02:23;3.58;;;1.58;;
75413;SDS011;64758;52.122;5.404;2023-06-14T04:04:50;5.47;;;1.83;;
75413;SDS011;64758;52.122;5.404;2023-06-14T04:07:17;3.10;;;1.77;;
75413;SDS011;64758;52.122;5.404;2023-06-14T04:09:47;6.55;;;1.88;;
75413;SDS011;64758;52.122;5.404;2023-06-14T04:12:13;3.40;;;1.70;;
75413;SDS011;64758;52.122;5.404;2023-06-14T04:14:40;2.30;;;1.63;;
75413;SDS011;64758;52.122;5.404;2023-06-14T04:17:07;3.38;;;1.80;;
75413;SDS011;64758;52.122;5.404;2023-06-14T04:19:33;3.43;;;1.60;;
75413;SDS011;64758;52.122;5.404;2023-06-14T04:22:01;5.22;;;2.15;;
75413;SDS011;64758;52.122;5.404;2023-06-14T04:24:28;2.97;;;1.70;;
75413;SDS011;64758;52.122;5.404;2023-06-14T04:26:58;3.05;;;1.85;;
75413;SDS011;64758;52.122;5.404;2023-06-14T04:29:27;5.65;;;1.80;;
75413;SDS011;64758;52.122;5.404;2023-06-14T04:31:55;3.03;;;1.97;;
75413;SDS011;64758;52.122;5.404;2023-06-14T04:34:28;6.68;;;1.92;;
75413;SDS011;64758;52.122;5.404;2023-06-14T04:37:00;3.55;;;2.22;;
75413;SDS011;64758;52.122;5.404;2023-06-14T04:39:27;4.97;;;2.13;;
75413;SDS011;64758;52.122;5.404;2023-06-14T04:41:54;3.15;;;2.22;;
75413;SDS011;64758;52.122;5.404;2023-06-14T04:44:23;4.83;;;1.70;;
75413;SDS011;64758;52.122;5.404;2023-06-14T04:46:56;5.03;;;1.70;;
75413;SDS011;64758;52.122;5.404;2023-06-14T04:49:24;6.70;;;2.33;;
75413;SDS011;64758;52.122;5.404;2023-06-14T04:51:53;3.50;;;2.03;;
75413;SDS011;64758;52.122;5.404;2023-06-14T04:54:27;3.33;;;1.90;;
75413;SDS011;64758;52.122;5.404;2023-06-14T04:56:54;3.77;;;2.20;;
75413;SDS011;64758;52.122;5.404;2023-06-14T04:59:21;4.53;;;2.35;;
75413;SDS011;64758;52.122;5.404;2023-06-14T05:01:50;4.40;;;2.00;;
75413;SDS011;64758;52.122;5.404;2023-06-14T05:04:18;4.07;;;2.00;;
75413;SDS011;64758;52.122;5.404;2023-06-14T05:06:45;8.60;;;2.00;;
75413;SDS011;64758;52.122;5.404;2023-06-14T05:09:14;4.40;;;2.03;;
75413;SDS011;64758;52.122;5.404;2023-06-14T05:11:44;3.97;;;1.75;;
75413;SDS011;64758;52.122;5.404;2023-06-14T05:14:11;3.92;;;1.90;;
75413;SDS011;64758;52.122;5.404;2023-06-14T05:16:38;4.07;;;2.13;;
75413;SDS011;64758;52.122;5.404;2023-06-14T05:19:05;5.05;;;2.03;;
75413;SDS011;64758;52.122;5.404;2023-06-14T05:21:33;5.93;;;2.17;;
75413;SDS011;64758;52.122;5.404;2023-06-14T05:24:08;3.88;;;2.20;;
75413;SDS011;64758;52.122;5.404;2023-06-14T05:26:35;4.35;;;2.15;;
75413;SDS011;64758;52.122;5.404;2023-06-14T05:29:02;3.42;;;2.30;;
75413;SDS011;64758;52.122;5.404;2023-06-14T05:31:29;3.40;;;1.92;;
75413;SDS011;64758;52.122;5.404;2023-06-14T05:33:55;2.77;;;2.10;;
75413;SDS011;64758;52.122;5.404;2023-06-14T05:36:22;3.13;;;1.90;;
75413;SDS011;64758;52.122;5.404;2023-06-14T05:38:49;4.15;;;1.90;;
75413;SDS011;64758;52.122;5.404;2023-06-14T05:41:16;5.68;;;2.08;;
75413;SDS011;64758;52.122;5.404;2023-06-14T05:43:43;3.47;;;2.00;;
75413;SDS011;64758;52.122;5.404;2023-06-14T05:46:10;3.50;;;2.00;;
75413;SDS011;64758;52.122;5.404;2023-06-14T05:48:36;5.28;;;2.08;;
75413;SDS011;64758;52.122;5.404;2023-06-14T05:51:03;7.82;;;2.35;;
75413;SDS011;64758;52.122;5.404;2023-06-14T05:53:30;7.47;;;2.38;;
75413;SDS011;64758;52.122;5.404;2023-06-14T05:55:56;6.78;;;2.33;;
75413;SDS011;64758;52.122;5.404;2023-06-14T05:58:23;3.83;;;2.03;;
75413;SDS011;64758;52.122;5.404;2023-06-14T06:00:49;2.78;;;2.40;;
75413;SDS011;64758;52.122;5.404;2023-06-14T06:03:17;5.40;;;1.80;;
75413;SDS011;64758;52.122;5.404;2023-06-14T06:05:43;5.18;;;2.08;;
75413;SDS011;64758;52.122;5.404;2023-06-14T06:08:10;4.82;;;2.42;;
75413;SDS011;64758;52.122;5.404;2023-06-14T06:10:36;3.03;;;2.30;;
75413;SDS011;64758;52.122;5.404;2023-06-14T06:13:03;6.75;;;2.10;;
75413;SDS011;64758;52.122;5.404;2023-06-14T06:15:30;3.28;;;2.42;;
75413;SDS011;64758;52.122;5.404;2023-06-14T06:17:56;4.32;;;2.40;;
75413;SDS011;64758;52.122;5.404;2023-06-14T06:20:23;8.55;;;2.40;;
75413;SDS011;64758;52.122;5.404;2023-06-14T06:22:56;4.60;;;1.93;;
75413;SDS011;64758;52.122;5.404;2023-06-14T06:25:23;6.35;;;2.00;;
75413;SDS011;64758;52.122;5.404;2023-06-14T06:27:52;5.47;;;2.35;;
75413;SDS011;64758;52.122;5.404;2023-06-14T06:30:19;4.65;;;2.30;;
75413;SDS011;64758;52.122;5.404;2023-06-14T06:32:46;3.63;;;2.03;;
75413;SDS011;64758;52.122;5.404;2023-06-14T06:35:13;3.83;;;2.10;;
75413;SDS011;64758;52.122;5.404;2023-06-14T06:37:41;3.13;;;2.00;;
75413;SDS011;64758;52.122;5.404;2023-06-14T06:40:08;3.53;;;2.03;;
75413;SDS011;64758;52.122;5.404;2023-06-14T06:42:35;5.53;;;2.00;;
75413;SDS011;64758;52.122;5.404;2023-06-14T06:45:02;4.22;;;2.22;;
75413;SDS011;64758;52.122;5.404;2023-06-14T06:47:30;3.13;;;1.83;;
75413;SDS011;64758;52.122;5.404;2023-06-14T06:49:56;2.60;;;2.10;;
75413;SDS011;64758;52.122;5.404;2023-06-14T06:52:23;3.38;;;2.33;;
75413;SDS011;64758;52.122;5.404;2023-06-14T06:54:49;3.63;;;2.10;;
75413;SDS011;64758;52.122;5.404;2023-06-14T06:57:21;8.88;;;2.42;;
75413;SDS011;64758;52.122;5.404;2023-06-14T06:59:49;5.33;;;2.00;;
75413;SDS011;64758;52.122;5.404;2023-06-14T07:02:16;3.97;;;1.92;;
75413;SDS011;64758;52.122;5.404;2023-06-14T07:04:43;4.80;;;2.38;;
75413;SDS011;64758;52.122;5.404;2023-06-14T07:07:09;5.20;;;2.20;;
75413;SDS011;64758;52.122;5.404;2023-06-14T07:09:36;3.15;;;2.20;;
75413;SDS011;64758;52.122;5.404;2023-06-14T07:12:03;5.70;;;2.17;;
75413;SDS011;64758;52.122;5.404;2023-06-14T07:14:30;6.57;;;2.20;;
75413;SDS011;64758;52.122;5.404;2023-06-14T07:16:56;4.28;;;2.60;;
75413;SDS011;64758;52.122;5.404;2023-06-14T07:19:23;3.97;;;2.40;;
75413;SDS011;64758;52.122;5.404;2023-06-14T07:21:49;5.10;;;2.15;;
75413;SDS011;64758;52.122;5.404;2023-06-14T07:24:16;5.17;;;2.20;;
75413;SDS011;64758;52.122;5.404;2023-06-14T07:26:43;4.72;;;1.85;;
75413;SDS011;64758;52.122;5.404;2023-06-14T07:29:09;3.13;;;1.90;;
75413;SDS011;64758;52.122;5.404;2023-06-14T07:31:36;3.65;;;1.83;;
75413;SDS011;64758;52.122;5.404;2023-06-14T07:34:02;4.03;;;1.80;;
75413;SDS011;64758;52.122;5.404;2023-06-14T07:36:29;3.77;;;1.80;;
75413;SDS011;64758;52.122;5.404;2023-06-14T07:38:56;4.80;;;1.80;;
75413;SDS011;64758;52.122;5.404;2023-06-14T07:41:23;5.80;;;2.00;;
75413;SDS011;64758;52.122;5.404;2023-06-14T07:43:50;3.28;;;1.92;;
75413;SDS011;64758;52.122;5.404;2023-06-14T07:46:16;4.65;;;2.08;;
75413;SDS011;64758;52.122;5.404;2023-06-14T07:48:43;3.50;;;1.50;;
75413;SDS011;64758;52.122;5.404;2023-06-14T07:51:10;5.72;;;1.80;;
75413;SDS011;64758;52.122;5.404;2023-06-14T07:53:37;2.33;;;1.40;;
75413;SDS011;64758;52.122;5.404;2023-06-14T07:56:03;4.72;;;1.88;;
75413;SDS011;64758;52.122;5.404;2023-06-14T07:58:30;4.55;;;1.40;;
75413;SDS011;64758;52.122;5.404;2023-06-14T08:00:56;4.30;;;1.33;;
75413;SDS011;64758;52.122;5.404;2023-06-14T08:03:23;2.65;;;1.50;;
75413;SDS011;64758;52.122;5.404;2023-06-14T08:05:50;5.75;;;1.58;;
75413;SDS011;64758;52.122;5.404;2023-06-14T08:08:17;2.10;;;1.38;;
75413;SDS011;64758;52.122;5.404;2023-06-14T08:10:44;2.45;;;1.27;;
75413;SDS011;64758;52.122;5.404;2023-06-14T08:13:10;6.10;;;1.57;;
75413;SDS011;64758;52.122;5.404;2023-06-14T08:15:37;4.50;;;1.40;;
75413;SDS011;64758;52.122;5.404;2023-06-14T08:18:03;3.65;;;1.30;;
75413;SDS011;64758;52.122;5.404;2023-06-14T08:20:30;1.58;;;1.13;;
75413;SDS011;64758;52.122;5.404;2023-06-14T08:22:58;1.65;;;1.20;;
75413;SDS011;64758;52.122;5.404;2023-06-14T08:25:24;2.23;;;1.53;;
75413;SDS011;64758;52.122;5.404;2023-06-14T08:27:52;1.30;;;1.00;;
75413;SDS011;64758;52.122;5.404;2023-06-14T08:30:18;1.80;;;1.40;;
75413;SDS011;64758;52.122;5.404;2023-06-14T08:32:45;2.03;;;1.58;;
75413;SDS011;64758;52.122;5.404;2023-06-14T08:35:16;2.90;;;1.33;;
75413;SDS011;64758;52.122;5.404;2023-06-14T08:37:44;3.03;;;1.20;;
75413;SDS011;64758;52.122;5.404;2023-06-14T08:40:21;3.85;;;1.27;;
75413;SDS011;64758;52.122;5.404;2023-06-14T08:42:52;3.80;;;1.20;;
75413;SDS011;64758;52.122;5.404;2023-06-14T08:45:23;2.40;;;1.08;;
75413;SDS011;64758;52.122;5.404;2023-06-14T08:47:53;3.15;;;1.20;;
75413;SDS011;64758;52.122;5.404;2023-06-14T08:50:25;4.60;;;1.10;;
75413;SDS011;64758;52.122;5.404;2023-06-14T08:52:55;2.13;;;1.00;;
75413;SDS011;64758;52.122;5.404;2023-06-14T08:55:26;3.28;;;1.27;;
75413;SDS011;64758;52.122;5.404;2023-06-14T08:57:54;3.67;;;1.02;;
75413;SDS011;64758;52.122;5.404;2023-06-14T09:00:24;1.52;;;1.00;;
75413;SDS011;64758;52.122;5.404;2023-06-14T09:02:52;3.50;;;1.00;;
75413;SDS011;64758;52.122;5.404;2023-06-14T09:05:25;4.93;;;2.38;;
75413;SDS011;64758;52.122;5.404;2023-06-14T09:07:52;2.50;;;1.05;;
75413;SDS011;64758;52.122;5.404;2023-06-14T09:10:21;1.27;;;0.75;;
75413;SDS011;64758;52.122;5.404;2023-06-14T09:12:49;2.53;;;1.40;;
75413;SDS011;64758;52.122;5.404;2023-06-14T09:15:15;3.03;;;1.17;;
75413;SDS011;64758;52.122;5.404;2023-06-14T09:17:43;2.42;;;1.00;;
75413;SDS011;64758;52.122;5.404;2023-06-14T09:20:10;1.80;;;1.00;;
75413;SDS011;64758;52.122;5.404;2023-06-14T09:22:37;2.22;;;1.10;;
75413;SDS011;64758;52.122;5.404;2023-06-14T09:25:04;1.30;;;1.00;;
75413;SDS011;64758;52.122;5.404;2023-06-14T09:27:32;1.60;;;1.20;;
75413;SDS011;64758;52.122;5.404;2023-06-14T09:30:02;2.15;;;0.80;;
75413;SDS011;64758;52.122;5.404;2023-06-14T09:32:30;1.27;;;0.80;;
75413;SDS011;64758;52.122;5.404;2023-06-14T09:34:57;1.80;;;1.00;;
75413;SDS011;64758;52.122;5.404;2023-06-14T09:37:28;2.92;;;1.35;;
75413;SDS011;64758;52.122;5.404;2023-06-14T09:39:55;1.80;;;0.90;;
75413;SDS011;64758;52.122;5.404;2023-06-14T09:42:23;3.10;;;1.05;;
75413;SDS011;64758;52.122;5.404;2023-06-14T09:44:52;1.33;;;0.95;;
75413;SDS011;64758;52.122;5.404;2023-06-14T09:47:25;1.92;;;1.00;;
75413;SDS011;64758;52.122;5.404;2023-06-14T09:49:52;1.40;;;0.70;;
75413;SDS011;64758;52.122;5.404;2023-06-14T09:52:21;1.23;;;0.83;;
75413;SDS011;64758;52.122;5.404;2023-06-14T09:54:49;1.60;;;0.98;;
75413;SDS011;64758;52.122;5.404;2023-06-14T09:57:16;2.47;;;1.00;;
75413;SDS011;64758;52.122;5.404;2023-06-14T09:59:47;2.80;;;1.40;;
75413;SDS011;64758;52.122;5.404;2023-06-14T10:04:55;2.27;;;0.83;;
75413;SDS011;64758;52.122;5.404;2023-06-14T10:07:27;2.67;;;0.85;;
75413;SDS011;64758;52.122;5.404;2023-06-14T10:09:58;1.92;;;1.10;;
75413;SDS011;64758;52.122;5.404;2023-06-14T10:12:25;2.22;;;0.95;;
75413;SDS011;64758;52.122;5.404;2023-06-14T10:14:53;1.60;;;0.80;;
75413;SDS011;64758;52.122;5.404;2023-06-14T10:20:10;2.53;;;0.80;;
75413;SDS011;64758;52.122;5.404;2023-06-14T10:22:47;4.53;;;0.82;;
75413;SDS011;64758;52.122;5.404;2023-06-14T10:25:26;2.95;;;0.88;;
75413;SDS011;64758;52.122;5.404;2023-06-14T10:33:39;2.85;;;0.88;;
75413;SDS011;64758;52.122;5.404;2023-06-14T10:41:35;2.45;;;0.75;;
75413;SDS011;64758;52.122;5.404;2023-06-14T10:44:46;1.17;;;0.90;;
75413;SDS011;64758;52.122;5.404;2023-06-14T10:46:57;4.13;;;0.90;;
75413;SDS011;64758;52.122;5.404;2023-06-14T10:49:42;3.28;;;1.10;;
75413;SDS011;64758;52.122;5.404;2023-06-14T10:52:12;2.92;;;0.90;;
75413;SDS011;64758;52.122;5.404;2023-06-14T10:54:56;5.50;;;0.95;;
75413;SDS011;64758;52.122;5.404;2023-06-14T10:57:22;4.07;;;1.20;;
75413;SDS011;64758;52.122;5.404;2023-06-14T10:59:50;3.35;;;0.90;;
75413;SDS011;64758;52.122;5.404;2023-06-14T11:05:04;1.30;;;0.90;;
75413;SDS011;64758;52.122;5.404;2023-06-14T11:10:37;1.93;;;0.90;;
75413;SDS011;64758;52.122;5.404;2023-06-14T11:13:05;1.83;;;1.00;;
75413;SDS011;64758;52.122;5.404;2023-06-14T11:15:33;2.45;;;1.05;;
75413;SDS011;64758;52.122;5.404;2023-06-14T11:18:01;2.92;;;1.08;;
75413;SDS011;64758;52.122;5.404;2023-06-14T11:20:30;1.60;;;0.90;;
75413;SDS011;64758;52.122;5.404;2023-06-14T11:22:58;1.50;;;1.00;;
75413;SDS011;64758;52.122;5.404;2023-06-14T11:25:26;5.22;;;1.00;;
75413;SDS011;64758;52.122;5.404;2023-06-14T11:27:54;2.60;;;1.13;;
75413;SDS011;64758;52.122;5.404;2023-06-14T11:30:24;5.10;;;1.00;;
75413;SDS011;64758;52.122;5.404;2023-06-14T11:32:52;1.88;;;1.05;;
75413;SDS011;64758;52.122;5.404;2023-06-14T11:35:24;2.20;;;1.20;;
75413;SDS011;64758;52.122;5.404;2023-06-14T11:37:55;1.40;;;1.02;;
75413;SDS011;64758;52.122;5.404;2023-06-14T11:40:26;2.15;;;1.00;;
75413;SDS011;64758;52.122;5.404;2023-06-14T11:43:00;2.47;;;1.02;;
75413;SDS011;64758;52.122;5.404;2023-06-14T11:45:29;2.90;;;1.00;;
75413;SDS011;64758;52.122;5.404;2023-06-14T11:47:57;4.90;;;1.10;;
75413;SDS011;64758;52.122;5.404;2023-06-14T11:50:25;3.63;;;1.10;;
75413;SDS011;64758;52.122;5.404;2023-06-14T11:52:54;3.35;;;1.20;;
75413;SDS011;64758;52.122;5.404;2023-06-14T11:55:26;3.47;;;1.10;;
75413;SDS011;64758;52.122;5.404;2023-06-14T11:57:53;3.63;;;1.20;;
75413;SDS011;64758;52.122;5.404;2023-06-14T12:00:24;3.43;;;1.20;;
75413;SDS011;64758;52.122;5.404;2023-06-14T12:02:52;3.70;;;1.20;;
75413;SDS011;64758;52.122;5.404;2023-06-14T12:05:23;2.55;;;1.17;;
75413;SDS011;64758;52.122;5.404;2023-06-14T12:07:57;5.72;;;1.00;;
75413;SDS011;64758;52.122;5.404;2023-06-14T12:10:26;2.42;;;1.20;;
75413;SDS011;64758;52.122;5.404;2023-06-14T12:12:57;3.03;;;0.90;;
75413;SDS011;64758;52.122;5.404;2023-06-14T12:15:28;1.55;;;1.10;;
75413;SDS011;64758;52.122;5.404;2023-06-14T12:17:58;2.03;;;1.02;;
75413;SDS011;64758;52.122;5.404;2023-06-14T12:20:28;1.40;;;0.90;;
75413;SDS011;64758;52.122;5.404;2023-06-14T12:22:57;3.72;;;1.45;;
75413;SDS011;64758;52.122;5.404;2023-06-14T12:25:34;1.40;;;1.00;;
75413;SDS011;64758;52.122;5.404;2023-06-14T12:28:08;2.75;;;1.15;;
75413;SDS011;64758;52.122;5.404;2023-06-14T12:30:36;4.72;;;1.00;;
75413;SDS011;64758;52.122;5.404;2023-06-14T12:33:03;3.25;;;1.40;;
75413;SDS011;64758;52.122;5.404;2023-06-14T12:35:30;1.13;;;1.02;;
75413;SDS011;64758;52.122;5.404;2023-06-14T12:37:57;2.67;;;1.20;;
75413;SDS011;64758;52.122;5.404;2023-06-14T12:40:24;3.50;;;1.00;;
75413;SDS011;64758;52.122;5.404;2023-06-14T12:42:51;4.72;;;1.48;;
75413;SDS011;64758;52.122;5.404;2023-06-14T12:45:17;2.47;;;0.90;;
75413;SDS011;64758;52.122;5.404;2023-06-14T12:47:44;3.42;;;1.13;;
75413;SDS011;64758;52.122;5.404;2023-06-14T12:50:12;4.97;;;1.20;;
75413;SDS011;64758;52.122;5.404;2023-06-14T12:52:39;1.70;;;1.15;;
75413;SDS011;64758;52.122;5.404;2023-06-14T12:55:05;2.28;;;0.85;;
75413;SDS011;64758;52.122;5.404;2023-06-14T12:57:32;1.70;;;0.77;;
75413;SDS011;64758;52.122;5.404;2023-06-14T13:00:01;1.88;;;0.88;;
75413;SDS011;64758;52.122;5.404;2023-06-14T13:02:27;5.93;;;0.80;;
75413;SDS011;64758;52.122;5.404;2023-06-14T13:04:55;7.82;;;1.27;;
75413;SDS011;64758;52.122;5.404;2023-06-14T13:07:22;1.50;;;0.73;;
75413;SDS011;64758;52.122;5.404;2023-06-14T13:09:48;1.70;;;0.80;;
75413;SDS011;64758;52.122;5.404;2023-06-14T13:12:15;2.88;;;1.08;;
75413;SDS011;64758;52.122;5.404;2023-06-14T13:14:42;3.97;;;0.90;;
75413;SDS011;64758;52.122;5.404;2023-06-14T13:17:09;2.60;;;0.77;;
75413;SDS011;64758;52.122;5.404;2023-06-14T13:19:36;3.83;;;1.02;;
75413;SDS011;64758;52.122;5.404;2023-06-14T13:22:03;2.42;;;1.13;;
75413;SDS011;64758;52.122;5.404;2023-06-14T13:24:30;1.65;;;1.17;;
75413;SDS011;64758;52.122;5.404;2023-06-14T13:26:57;2.40;;;0.90;;
75413;SDS011;64758;52.122;5.404;2023-06-14T13:29:24;3.17;;;0.82;;
75413;SDS011;64758;52.122;5.404;2023-06-14T13:31:51;2.65;;;1.10;;
75413;SDS011;64758;52.122;5.404;2023-06-14T13:34:19;1.95;;;0.98;;
75413;SDS011;64758;52.122;5.404;2023-06-14T13:36:46;2.33;;;1.00;;
75413;SDS011;64758;52.122;5.404;2023-06-14T13:39:13;2.03;;;1.00;;
75413;SDS011;64758;52.122;5.404;2023-06-14T13:41:40;2.85;;;1.10;;
75413;SDS011;64758;52.122;5.404;2023-06-14T13:44:06;3.10;;;1.13;;
75413;SDS011;64758;52.122;5.404;2023-06-14T13:46:33;2.42;;;1.20;;
75413;SDS011;64758;52.122;5.404;2023-06-14T13:48:59;3.78;;;1.60;;
75413;SDS011;64758;52.122;5.404;2023-06-14T13:51:27;2.73;;;1.30;;
75413;SDS011;64758;52.122;5.404;2023-06-14T13:53:53;1.58;;;1.10;;
75413;SDS011;64758;52.122;5.404;2023-06-14T13:56:21;1.80;;;1.30;;
75413;SDS011;64758;52.122;5.404;2023-06-14T13:58:50;2.17;;;1.20;;
75413;SDS011;64758;52.122;5.404;2023-06-14T14:01:18;3.45;;;1.50;;
75413;SDS011;64758;52.122;5.404;2023-06-14T14:03:46;4.30;;;1.10;;
75413;SDS011;64758;52.122;5.404;2023-06-14T14:06:14;2.03;;;1.50;;
75413;SDS011;64758;52.122;5.404;2023-06-14T14:08:41;13.15;;;1.83;;
75413;SDS011;64758;52.122;5.404;2023-06-14T14:11:08;2.58;;;1.17;;
75413;SDS011;64758;52.122;5.404;2023-06-14T14:13:35;2.47;;;1.30;;
75413;SDS011;64758;52.122;5.404;2023-06-14T14:16:03;3.53;;;1.40;;
75413;SDS011;64758;52.122;5.404;2023-06-14T14:18:30;2.55;;;1.05;;
75413;SDS011;64758;52.122;5.404;2023-06-14T14:20:57;2.65;;;1.10;;
75413;SDS011;64758;52.122;5.404;2023-06-14T14:23:25;2.40;;;1.33;;
75413;SDS011;64758;52.122;5.404;2023-06-14T14:25:51;2.33;;;1.20;;
75413;SDS011;64758;52.122;5.404;2023-06-14T14:28:18;2.90;;;1.33;;
75413;SDS011;64758;52.122;5.404;2023-06-14T14:30:46;4.40;;;0.98;;
75413;SDS011;64758;52.122;5.404;2023-06-14T14:33:14;7.20;;;1.30;;
75413;SDS011;64758;52.122;5.404;2023-06-14T14:35:43;3.53;;;1.40;;
75413;SDS011;64758;52.122;5.404;2023-06-14T14:38:13;2.08;;;1.20;;
75413;SDS011;64758;52.122;5.404;2023-06-14T14:40:42;1.20;;;1.10;;
75413;SDS011;64758;52.122;5.404;2023-06-14T14:43:10;2.95;;;1.10;;
75413;SDS011;64758;52.122;5.404;2023-06-14T14:45:37;3.65;;;1.95;;
75413;SDS011;64758;52.122;5.404;2023-06-14T14:48:04;5.55;;;2.03;;
75413;SDS011;64758;52.122;5.404;2023-06-14T14:50:32;3.20;;;1.15;;
75413;SDS011;64758;52.122;5.404;2023-06-14T14:52:59;3.00;;;1.00;;
75413;SDS011;64758;52.122;5.404;2023-06-14T14:55:25;1.85;;;1.40;;
75413;SDS011;64758;52.122;5.404;2023-06-14T14:57:52;1.33;;;1.10;;
75413;SDS011;64758;52.122;5.404;2023-06-14T15:00:19;1.88;;;0.90;;
75413;SDS011;64758;52.122;5.404;2023-06-14T15:02:46;1.85;;;0.98;;
75413;SDS011;64758;52.122;5.404;2023-06-14T15:05:12;3.00;;;1.10;;
75413;SDS011;64758;52.122;5.404;2023-06-14T15:07:39;1.23;;;1.05;;
75413;SDS011;64758;52.122;5.404;2023-06-14T15:10:06;1.90;;;1.02;;
75413;SDS011;64758;52.122;5.404;2023-06-14T15:12:34;1.20;;;0.90;;
75413;SDS011;64758;52.122;5.404;2023-06-14T15:15:01;1.38;;;1.25;;
75413;SDS011;64758;52.122;5.404;2023-06-14T15:17:28;2.13;;;1.10;;